createdAt,value
2023-02-13T00:00:34.605Z,1.20
2023-02-13T00:03:02.167Z,1.20
2023-02-13T00:05:29.660Z,1.20
2023-02-13T00:07:57.381Z,1.20
2023-02-13T00:10:24.723Z,1.20
2023-02-13T00:12:52.027Z,1.20
2023-02-13T00:15:19.128Z,1.10
2023-02-13T00:17:46.290Z,1.10
2023-02-13T00:20:13.967Z,1.20
2023-02-13T00:22:41.062Z,1.00
2023-02-13T00:25:08.780Z,1.00
2023-02-13T00:27:36.142Z,0.90
2023-02-13T00:30:04.948Z,0.90
2023-02-13T00:32:32.152Z,0.80
2023-02-13T00:34:59.222Z,0.80
2023-02-13T00:37:26.620Z,0.70
2023-02-13T00:39:54.191Z,0.60
2023-02-13T00:42:24.155Z,0.50
2023-02-13T00:44:51.368Z,0.50
2023-02-13T00:47:18.953Z,0.40
2023-02-13T00:49:45.978Z,0.40
2023-02-13T00:52:13.012Z,0.30
2023-02-13T00:54:40.052Z,0.20
2023-02-13T00:57:07.077Z,0.10
2023-02-13T00:59:34.089Z,0.10
2023-02-13T01:02:01.158Z,0.00
2023-02-13T01:04:28.329Z,-0.10
2023-02-13T01:06:55.176Z,0.00
2023-02-13T01:09:22.286Z,-0.10
2023-02-13T01:11:49.939Z,-0.10
2023-02-13T01:14:16.938Z,0.00
2023-02-13T01:16:43.955Z,0.00
2023-02-13T01:19:10.923Z,0.00
2023-02-13T01:21:37.998Z,-0.10
2023-02-13T01:24:06.093Z,-0.10
2023-02-13T01:26:33.454Z,-0.10
2023-02-13T01:29:01.815Z,-0.10
2023-02-13T01:31:29.119Z,-0.20
2023-02-13T01:33:58.154Z,-0.20
2023-02-13T01:36:25.591Z,-0.30
2023-02-13T01:38:57.480Z,-0.30
2023-02-13T01:41:26.402Z,-0.30
2023-02-13T01:44:01.638Z,-0.30
2023-02-13T01:46:43.107Z,-0.40
2023-02-13T01:49:24.157Z,-0.40
2023-02-13T01:51:54.600Z,-0.40
2023-02-13T01:54:30.878Z,-0.40
2023-02-13T01:57:18.483Z,-0.30
2023-02-13T02:00:00.794Z,-0.30
2023-02-13T02:02:31.682Z,-0.30
2023-02-13T02:04:59.288Z,-0.40
2023-02-13T02:07:29.121Z,-0.40
2023-02-13T02:10:00.827Z,-0.50
2023-02-13T02:12:47.993Z,-0.60
2023-02-13T02:15:15.092Z,-0.60
2023-02-13T02:17:42.286Z,-0.60
2023-02-13T02:20:23.137Z,-0.60
2023-02-13T02:22:56.243Z,-0.60
2023-02-13T02:25:42.190Z,-0.60
2023-02-13T02:28:29.044Z,-0.50
2023-02-13T02:31:12.480Z,-0.50
2023-02-13T02:33:58.228Z,-0.60
2023-02-13T02:36:36.540Z,-0.60
2023-02-13T02:39:25.786Z,-0.60
2023-02-13T02:42:15.153Z,-0.60
2023-02-13T02:44:55.595Z,-0.70
2023-02-13T02:47:50.752Z,-0.70
2023-02-13T02:50:42.684Z,-0.60
2023-02-13T02:53:18.309Z,-0.60
2023-02-13T02:55:59.100Z,-0.60
2023-02-13T02:59:01.156Z,-0.60
2023-02-13T03:01:49.185Z,-0.60
2023-02-13T03:04:51.217Z,-0.50
2023-02-13T03:07:19.695Z,-0.50
2023-02-13T03:10:11.061Z,-0.50
2023-02-13T03:13:22.433Z,-0.50
2023-02-13T03:16:11.561Z,-0.50
2023-02-13T03:18:59.459Z,-0.60
2023-02-13T03:22:20.850Z,-0.60
2023-02-13T03:24:58.721Z,-0.70
2023-02-13T03:28:05.779Z,-0.60
2023-02-13T03:30:47.601Z,-0.60
2023-02-13T03:33:34.907Z,-0.60
2023-02-13T03:36:37.791Z,-0.70
2023-02-13T03:39:22.341Z,-0.80
2023-02-13T03:42:02.674Z,-0.80
2023-02-13T03:44:40.784Z,-0.90
2023-02-13T03:47:09.636Z,-0.90
2023-02-13T03:50:00.794Z,-0.90
2023-02-13T03:52:45.057Z,-1.00
2023-02-13T03:55:33.652Z,-1.00
2023-02-13T03:58:28.236Z,-1.00
2023-02-13T04:01:00.823Z,-1.10
2023-02-13T04:03:42.901Z,-1.20
2023-02-13T04:06:30.042Z,-1.20
2023-02-13T04:08:57.032Z,-1.20
2023-02-13T04:11:23.956Z,-1.20
2023-02-13T04:13:55.569Z,-1.30
2023-02-13T04:16:30.401Z,-1.30
2023-02-13T04:18:59.757Z,-1.30
2023-02-13T04:21:26.853Z,-1.30
2023-02-13T04:23:53.862Z,-1.30
2023-02-13T04:26:23.424Z,-1.30
2023-02-13T04:28:50.681Z,-1.20
2023-02-13T04:31:17.859Z,-1.20
2023-02-13T04:33:45.023Z,-1.20
2023-02-13T04:36:11.978Z,-1.20
2023-02-13T04:38:38.996Z,-1.20
2023-02-13T04:41:05.998Z,-1.20
2023-02-13T04:43:33.075Z,-1.20
2023-02-13T04:46:00.034Z,-1.20
2023-02-13T04:48:27.015Z,-1.10
2023-02-13T04:50:54.190Z,-1.10
2023-02-13T04:53:21.250Z,-1.20
2023-02-13T04:55:48.418Z,-1.20
2023-02-13T04:58:15.689Z,-1.20
2023-02-13T05:00:42.644Z,-1.10
2023-02-13T05:03:12.482Z,-1.10
2023-02-13T05:05:39.945Z,-1.20
2023-02-13T05:08:08.144Z,-1.20
2023-02-13T05:10:35.244Z,-1.20
2023-02-13T05:13:02.627Z,-1.20
2023-02-13T05:15:30.097Z,-1.20
2023-02-13T05:17:57.291Z,-1.20
2023-02-13T05:20:24.257Z,-1.20
2023-02-13T05:23:12.043Z,-1.10
2023-02-13T05:25:41.278Z,-1.00
2023-02-13T05:28:27.443Z,-1.10
2023-02-13T05:30:54.612Z,-1.10
2023-02-13T05:33:21.571Z,-1.10
2023-02-13T05:35:48.562Z,-1.10
2023-02-13T05:38:15.837Z,-1.10
2023-02-13T05:40:42.842Z,-1.20
2023-02-13T05:43:09.816Z,-1.10
2023-02-13T05:45:36.752Z,-1.10
2023-02-13T05:48:03.969Z,-1.30
2023-02-13T05:50:30.936Z,-1.40
2023-02-13T05:52:58.179Z,-1.40
2023-02-13T05:55:25.196Z,-1.50
2023-02-13T05:57:56.698Z,-1.40
2023-02-13T06:00:23.988Z,-1.50
2023-02-13T06:02:51.172Z,-1.50
2023-02-13T06:05:18.327Z,-1.60
2023-02-13T06:07:45.822Z,-1.60
2023-02-13T06:10:12.726Z,-1.60
2023-02-13T06:12:40.079Z,-1.60
2023-02-13T06:15:07.616Z,-1.70
2023-02-13T06:17:34.597Z,-1.70
2023-02-13T06:20:01.601Z,-1.70
2023-02-13T06:22:28.640Z,-1.70
2023-02-13T06:24:55.717Z,-1.80
2023-02-13T06:27:22.887Z,-1.80
2023-02-13T06:29:50.396Z,-1.80
2023-02-13T06:32:17.428Z,-1.80
2023-02-13T06:34:44.419Z,-1.80
2023-02-13T06:37:11.397Z,-1.80
2023-02-13T06:39:38.383Z,-1.80
2023-02-13T06:42:05.501Z,-1.80
2023-02-13T06:44:32.867Z,-1.80
2023-02-13T06:46:59.851Z,-1.80
2023-02-13T06:49:26.888Z,-1.70
2023-02-13T06:51:54.521Z,-1.80
2023-02-13T06:54:28.684Z,-1.80
2023-02-13T06:57:00.949Z,-1.80
2023-02-13T06:59:27.958Z,-1.70
2023-02-13T07:01:55.030Z,-1.70
2023-02-13T07:04:22.152Z,-1.70
2023-02-13T07:06:49.184Z,-1.70
2023-02-13T07:09:16.692Z,-1.60
2023-02-13T07:11:43.952Z,-1.60
2023-02-13T07:14:11.293Z,-1.60
2023-02-13T07:16:38.283Z,-1.50
2023-02-13T07:19:05.300Z,-1.60
2023-02-13T07:21:32.165Z,-1.60
2023-02-13T07:23:59.361Z,-1.50
2023-02-13T07:26:27.222Z,-1.40
2023-02-13T07:29:09.195Z,-1.40
2023-02-13T07:31:37.618Z,-1.30
2023-02-13T07:34:04.674Z,-1.30
2023-02-13T07:36:31.633Z,-1.30
2023-02-13T07:38:58.500Z,-1.20
2023-02-13T07:41:28.323Z,-1.20
2023-02-13T07:43:55.346Z,-1.20
2023-02-13T07:46:22.622Z,-1.20
2023-02-13T07:48:52.576Z,-1.20
2023-02-13T07:51:19.702Z,-1.10
2023-02-13T07:53:46.886Z,-1.10
2023-02-13T07:56:14.026Z,-1.00
2023-02-13T07:58:41.160Z,-0.90
2023-02-13T08:01:09.790Z,-0.80
2023-02-13T08:03:37.300Z,-0.70
2023-02-13T08:06:05.453Z,-0.70
2023-02-13T08:08:32.708Z,-0.70
2023-02-13T08:11:26.811Z,-0.60
2023-02-13T08:13:53.801Z,-0.40
2023-02-13T08:16:21.086Z,-0.40
2023-02-13T08:18:48.151Z,-0.40
2023-02-13T08:21:15.425Z,-0.20
2023-02-13T08:23:42.436Z,-0.20
2023-02-13T08:26:11.121Z,0.00
2023-02-13T08:28:38.566Z,0.20
2023-02-13T08:31:13.383Z,0.20
2023-02-13T08:33:41.635Z,0.40
2023-02-13T08:36:09.039Z,0.60
2023-02-13T08:38:36.063Z,0.80
2023-02-13T08:41:03.159Z,1.00
2023-02-13T08:43:30.208Z,1.10
2023-02-13T08:46:01.320Z,1.20
2023-02-13T08:48:28.424Z,1.40
2023-02-13T08:50:55.421Z,1.50
2023-02-13T08:53:23.439Z,1.60
2023-02-13T08:55:58.079Z,1.80
2023-02-13T08:58:25.562Z,2.00
2023-02-13T09:00:52.698Z,2.10
2023-02-13T09:03:20.083Z,2.10
2023-02-13T09:05:50.118Z,2.10
2023-02-13T09:08:18.614Z,2.20
2023-02-13T09:10:46.199Z,2.40
2023-02-13T09:13:13.159Z,2.50
2023-02-13T09:15:40.843Z,2.50
2023-02-13T09:18:08.409Z,2.40
2023-02-13T09:20:36.226Z,2.40
2023-02-13T09:23:03.714Z,2.40
2023-02-13T09:25:31.814Z,2.50
2023-02-13T09:28:00.028Z,2.60
2023-02-13T09:30:27.580Z,2.80
2023-02-13T09:32:55.574Z,2.80
2023-02-13T09:35:23.253Z,2.90
2023-02-13T09:37:50.222Z,3.10
2023-02-13T09:40:31.984Z,3.20
2023-02-13T09:43:12.514Z,3.30
2023-02-13T09:45:39.805Z,3.40
2023-02-13T09:48:07.087Z,3.50
2023-02-13T09:50:35.099Z,3.60
2023-02-13T09:53:04.132Z,3.70
2023-02-13T09:55:52.967Z,3.90
2023-02-13T09:58:36.677Z,4.00
2023-02-13T10:01:14.198Z,4.00
2023-02-13T10:03:49.590Z,4.10
2023-02-13T10:06:31.890Z,4.30
2023-02-13T10:09:21.583Z,4.20
2023-02-13T10:12:01.586Z,4.20
2023-02-13T10:14:41.766Z,4.50
2023-02-13T10:17:26.841Z,4.70
2023-02-13T10:20:02.481Z,4.70
2023-02-13T10:22:35.975Z,4.80
2023-02-13T10:25:24.272Z,5.00
2023-02-13T10:27:59.823Z,5.20
2023-02-13T10:30:32.742Z,5.50
2023-02-13T10:33:25.904Z,5.60
2023-02-13T10:36:03.462Z,6.00
2023-02-13T10:38:34.764Z,6.10
2023-02-13T10:41:06.570Z,6.30
2023-02-13T10:44:15.936Z,6.50
2023-02-13T10:46:45.985Z,6.80
2023-02-13T10:49:25.052Z,7.10
2023-02-13T10:51:55.034Z,7.40
2023-02-13T10:54:34.859Z,7.60
2023-02-13T10:57:14.441Z,7.80
2023-02-13T11:00:10.622Z,7.90
2023-02-13T11:02:38.698Z,8.00
2023-02-13T11:05:19.470Z,8.00
2023-02-13T11:07:47.722Z,8.00
2023-02-13T11:10:20.479Z,8.00
2023-02-13T11:12:48.559Z,8.10
2023-02-13T11:15:27.209Z,8.10
2023-02-13T11:17:57.522Z,8.10
2023-02-13T11:20:38.814Z,8.20
2023-02-13T11:23:30.835Z,8.50
2023-02-13T11:26:00.310Z,8.70
2023-02-13T11:28:30.017Z,8.90
2023-02-13T11:31:11.388Z,9.00
2023-02-13T11:33:39.632Z,9.30
2023-02-13T11:36:22.443Z,9.60
2023-02-13T11:39:05.835Z,9.70
2023-02-13T11:41:42.147Z,9.70
2023-02-13T11:44:28.907Z,9.60
2023-02-13T11:46:59.189Z,9.70
2023-02-13T11:49:35.784Z,9.80
2023-02-13T11:52:05.615Z,9.90
2023-02-13T11:54:43.931Z,10.00
2023-02-13T11:57:17.904Z,10.20
2023-02-13T11:59:46.940Z,10.20
2023-02-13T12:02:19.916Z,10.30
2023-02-13T12:04:48.751Z,10.40
2023-02-13T12:07:20.882Z,10.50
2023-02-13T12:09:54.105Z,10.70
2023-02-13T12:12:42.620Z,11.00
2023-02-13T12:15:31.064Z,11.00
2023-02-13T12:18:18.491Z,11.30
2023-02-13T12:21:00.911Z,11.50
2023-02-13T12:23:52.016Z,11.90
2023-02-13T12:26:22.442Z,11.80
2023-02-13T12:29:08.279Z,11.20
2023-02-13T12:31:58.733Z,10.80
2023-02-13T12:34:48.218Z,10.80
2023-02-13T12:37:48.690Z,11.10
2023-02-13T12:40:30.414Z,11.40
2023-02-13T12:43:19.939Z,11.70
2023-02-13T12:46:21.629Z,11.70
2023-02-13T12:49:09.318Z,11.60
2023-02-13T12:51:48.308Z,11.60
2023-02-13T12:54:34.471Z,11.90
2023-02-13T12:57:22.806Z,12.20
2023-02-13T12:59:55.260Z,12.50
2023-02-13T13:02:34.794Z,12.70
2023-02-13T13:05:31.559Z,12.50
2023-02-13T13:08:28.650Z,12.00
2023-02-13T13:11:22.054Z,11.60
2023-02-13T13:14:15.071Z,11.20
2023-02-13T13:16:57.213Z,11.60
2023-02-13T13:19:55.285Z,11.80
2023-02-13T13:22:36.791Z,12.00
2023-02-13T13:25:25.698Z,11.90
2023-02-13T13:28:05.921Z,12.00
2023-02-13T13:30:35.999Z,11.80
2023-02-13T13:33:16.720Z,11.80
2023-02-13T13:36:05.304Z,12.00
2023-02-13T13:38:52.307Z,11.60
2023-02-13T13:41:31.146Z,11.30
2023-02-13T13:44:09.416Z,11.10
2023-02-13T13:47:01.362Z,11.00
2023-02-13T13:49:42.068Z,11.00
2023-02-13T13:52:34.088Z,11.50
2023-02-13T13:55:04.399Z,11.90
2023-02-13T13:57:34.381Z,11.80
2023-02-13T14:00:25.136Z,11.40
2023-02-13T14:03:20.608Z,11.40
2023-02-13T14:05:58.607Z,11.60
2023-02-13T14:08:40.420Z,11.50
2023-02-13T14:11:27.065Z,11.50
2023-02-13T14:13:54.068Z,11.60
2023-02-13T14:16:41.810Z,11.90
2023-02-13T14:19:43.592Z,11.90
2023-02-13T14:22:19.268Z,12.10
2023-02-13T14:25:07.336Z,11.80
2023-02-13T14:27:39.403Z,11.80
2023-02-13T14:30:26.853Z,11.90
2023-02-13T14:32:54.341Z,12.00
2023-02-13T14:35:26.164Z,12.20
2023-02-13T14:37:59.246Z,12.10
2023-02-13T14:40:49.664Z,11.90
2023-02-13T14:43:33.566Z,11.90
2023-02-13T14:46:36.159Z,11.80
2023-02-13T14:49:10.681Z,11.90
2023-02-13T14:51:45.812Z,12.20
2023-02-13T14:54:25.941Z,12.30
2023-02-13T14:56:59.666Z,12.10
2023-02-13T14:59:32.785Z,11.90
2023-02-13T15:02:04.245Z,11.90
2023-02-13T15:04:43.013Z,11.80
2023-02-13T15:07:21.110Z,11.80
2023-02-13T15:10:12.629Z,11.80
2023-02-13T15:12:39.652Z,11.90
2023-02-13T15:15:27.706Z,11.90
2023-02-13T15:18:01.707Z,11.80
2023-02-13T15:20:33.002Z,11.60
2023-02-13T15:23:00.305Z,11.30
2023-02-13T15:25:34.533Z,11.10
2023-02-13T15:28:04.467Z,11.10
2023-02-13T15:30:36.821Z,10.80
2023-02-13T15:33:21.122Z,10.60
2023-02-13T15:35:55.757Z,10.70
2023-02-13T15:38:36.705Z,10.70
2023-02-13T15:41:05.968Z,10.70
2023-02-13T15:43:43.640Z,10.50
2023-02-13T15:46:21.126Z,10.40
2023-02-13T15:48:48.861Z,10.30
2023-02-13T15:51:28.574Z,10.20
2023-02-13T15:54:07.999Z,10.20
2023-02-13T15:56:36.763Z,9.90
2023-02-13T15:59:04.202Z,9.60
2023-02-13T16:01:33.070Z,9.60
2023-02-13T16:04:05.193Z,9.40
2023-02-13T16:06:34.214Z,9.20
2023-02-13T16:09:02.203Z,9.00
2023-02-13T16:11:38.699Z,8.80
2023-02-13T16:14:14.386Z,8.50
2023-02-13T16:17:00.821Z,8.40
2023-02-13T16:19:32.665Z,8.20
2023-02-13T16:22:31.822Z,7.90
2023-02-13T16:25:04.857Z,7.60
2023-02-13T16:27:33.525Z,7.30
2023-02-13T16:30:04.985Z,7.10
2023-02-13T16:32:34.757Z,6.80
2023-02-13T16:35:29.040Z,6.70
2023-02-13T16:38:00.503Z,6.60
2023-02-13T16:40:38.523Z,6.40
2023-02-13T16:43:45.109Z,6.30
2023-02-13T16:46:16.536Z,6.20
2023-02-13T16:48:45.940Z,6.10
2023-02-13T16:51:13.294Z,5.90
2023-02-13T16:53:41.163Z,5.80
2023-02-13T16:56:11.110Z,5.70
2023-02-13T16:58:38.329Z,5.60
2023-02-13T17:01:06.029Z,5.50
2023-02-13T17:03:33.449Z,5.30
2023-02-13T17:06:02.656Z,5.30
2023-02-13T17:08:31.884Z,5.10
2023-02-13T17:11:07.963Z,5.00
2023-02-13T17:13:35.436Z,4.90
2023-02-13T17:16:02.634Z,4.80
2023-02-13T17:18:29.787Z,4.70
2023-02-13T17:20:57.413Z,4.60
2023-02-13T17:23:25.455Z,4.50
2023-02-13T17:25:54.142Z,4.40
2023-02-13T17:28:27.766Z,4.40
2023-02-13T17:30:58.742Z,4.30
2023-02-13T17:33:27.754Z,4.20
2023-02-13T17:35:55.511Z,4.10
2023-02-13T17:38:23.155Z,4.10
2023-02-13T17:40:50.472Z,4.00
2023-02-13T17:43:19.333Z,3.90
2023-02-13T17:45:47.310Z,3.80
2023-02-13T17:48:14.289Z,3.80
2023-02-13T17:50:41.631Z,3.80
2023-02-13T17:53:22.789Z,3.80
2023-02-13T17:55:50.339Z,3.80
2023-02-13T17:58:17.405Z,3.70
2023-02-13T18:00:44.387Z,3.70
2023-02-13T18:03:12.638Z,3.80
2023-02-13T18:05:40.393Z,3.80
2023-02-13T18:08:07.737Z,3.70
2023-02-13T18:10:36.492Z,3.60
2023-02-13T18:13:04.455Z,3.50
2023-02-13T18:15:42.883Z,3.50
2023-02-13T18:18:10.807Z,3.50
2023-02-13T18:20:37.763Z,3.30
2023-02-13T18:23:06.202Z,3.30
2023-02-13T18:25:33.287Z,3.40
2023-02-13T18:28:00.419Z,3.40
2023-02-13T18:30:27.938Z,3.40
2023-02-13T18:32:56.705Z,3.30
2023-02-13T18:35:23.656Z,3.20
2023-02-13T18:37:51.365Z,3.10
2023-02-13T18:40:18.514Z,3.00
2023-02-13T18:42:45.523Z,2.90
2023-02-13T18:45:12.795Z,2.90
2023-02-13T18:47:39.876Z,2.80
2023-02-13T18:50:07.859Z,2.80
2023-02-13T18:52:35.792Z,2.80
2023-02-13T18:55:04.094Z,2.70
2023-02-13T18:57:31.103Z,2.70
2023-02-13T18:59:58.309Z,2.70
2023-02-13T19:02:25.488Z,2.70
2023-02-13T19:04:53.384Z,2.70
2023-02-13T19:07:21.008Z,2.70
2023-02-13T19:09:48.712Z,2.70
2023-02-13T19:12:15.807Z,2.70
2023-02-13T19:14:44.095Z,2.60
2023-02-13T19:17:11.142Z,2.60
2023-02-13T19:19:38.287Z,2.60
2023-02-13T19:22:05.249Z,2.60
2023-02-13T19:24:32.308Z,2.50
2023-02-13T19:27:00.497Z,2.50
2023-02-13T19:29:27.831Z,2.50
2023-02-13T19:31:54.830Z,2.50
2023-02-13T19:34:21.996Z,2.40
2023-02-13T19:36:48.939Z,2.40
2023-02-13T19:39:15.893Z,2.40
2023-02-13T19:41:44.108Z,2.40
2023-02-13T19:44:11.374Z,2.30
2023-02-13T19:46:38.646Z,2.40
2023-02-13T19:49:06.354Z,2.20
2023-02-13T19:51:34.898Z,2.20
2023-02-13T19:54:05.063Z,2.20
2023-02-13T19:56:33.953Z,2.10
2023-02-13T19:59:00.897Z,2.20
2023-02-13T20:01:29.205Z,2.20
2023-02-13T20:03:56.627Z,2.20
2023-02-13T20:06:27.590Z,2.20
2023-02-13T20:09:00.182Z,2.20
2023-02-13T20:11:27.958Z,2.20
2023-02-13T20:13:56.499Z,2.10
2023-02-13T20:16:24.004Z,2.10
2023-02-13T20:18:50.943Z,2.10
2023-02-13T20:21:18.309Z,2.00
2023-02-13T20:23:49.619Z,1.90
2023-02-13T20:26:17.465Z,1.80
2023-02-13T20:28:46.113Z,1.70
2023-02-13T20:31:16.220Z,1.60
2023-02-13T20:33:44.041Z,1.60
2023-02-13T20:36:19.812Z,1.60
2023-02-13T20:38:47.624Z,1.60
2023-02-13T20:41:23.158Z,1.60
2023-02-13T20:43:50.232Z,1.50
2023-02-13T20:46:17.944Z,1.40
2023-02-13T20:48:48.695Z,1.40
2023-02-13T20:51:17.485Z,1.40
2023-02-13T20:53:45.313Z,1.30
2023-02-13T20:56:18.002Z,1.20
2023-02-13T20:58:46.736Z,1.20
2023-02-13T21:01:16.482Z,1.10
2023-02-13T21:03:47.845Z,1.10
2023-02-13T21:06:15.580Z,1.00
2023-02-13T21:08:43.788Z,1.00
2023-02-13T21:11:11.161Z,0.90
2023-02-13T21:13:40.261Z,0.90
2023-02-13T21:16:16.156Z,0.80
2023-02-13T21:18:43.659Z,0.80
2023-02-13T21:21:11.739Z,0.70
2023-02-13T21:23:38.950Z,0.70
2023-02-13T21:26:17.219Z,0.70
2023-02-13T21:28:49.386Z,0.70
2023-02-13T21:31:29.612Z,0.60
2023-02-13T21:34:05.692Z,0.60
2023-02-13T21:36:34.817Z,0.60
2023-02-13T21:39:01.923Z,0.60
2023-02-13T21:41:30.852Z,0.60
2023-02-13T21:43:57.829Z,0.50
2023-02-13T21:46:27.684Z,0.50
2023-02-13T21:49:00.651Z,0.50
2023-02-13T21:51:29.216Z,0.50
2023-02-13T21:53:56.585Z,0.50
2023-02-13T21:56:32.384Z,0.50
2023-02-13T21:58:59.918Z,0.50
2023-02-13T22:01:30.315Z,0.50
2023-02-13T22:04:01.126Z,0.50
2023-02-13T22:06:30.656Z,0.40
2023-02-13T22:09:00.924Z,0.40
2023-02-13T22:11:28.312Z,0.40
2023-02-13T22:13:57.173Z,0.30
2023-02-13T22:16:24.651Z,0.20
2023-02-13T22:18:51.835Z,0.20
2023-02-13T22:21:21.360Z,0.10
2023-02-13T22:23:49.120Z,0.10
2023-02-13T22:26:28.261Z,0.10
2023-02-13T22:28:58.786Z,0.00
2023-02-13T22:31:26.184Z,0.00
2023-02-13T22:34:04.488Z,0.00
2023-02-13T22:36:38.967Z,-0.10
2023-02-13T22:39:07.207Z,-0.10
2023-02-13T22:41:34.447Z,-0.10
2023-02-13T22:44:01.495Z,-0.10
2023-02-13T22:46:31.086Z,-0.10
2023-02-13T22:48:58.821Z,-0.10
2023-02-13T22:51:31.848Z,-0.10
2023-02-13T22:53:59.651Z,-0.10
2023-02-13T22:56:29.060Z,-0.10
2023-02-13T22:58:56.170Z,-0.20
2023-02-13T23:01:25.514Z,-0.20
2023-02-13T23:03:52.928Z,-0.20
2023-02-13T23:06:22.150Z,-0.20
2023-02-13T23:08:52.925Z,-0.20
2023-02-13T23:11:40.908Z,-0.20
2023-02-13T23:14:08.199Z,-0.30
2023-02-13T23:16:54.024Z,-0.30
2023-02-13T23:19:21.735Z,-0.30
2023-02-13T23:21:49.058Z,-0.20
2023-02-13T23:24:16.120Z,-0.30
2023-02-13T23:26:43.297Z,-0.30
2023-02-13T23:29:11.019Z,-0.40
2023-02-13T23:31:38.134Z,-0.40
2023-02-13T23:34:05.454Z,-0.50
2023-02-13T23:36:32.412Z,-0.50
2023-02-13T23:38:59.461Z,-0.50
2023-02-13T23:41:26.429Z,-0.60
2023-02-13T23:43:53.422Z,-0.60
2023-02-13T23:46:20.555Z,-0.70
2023-02-13T23:48:47.646Z,-0.70
2023-02-13T23:51:14.754Z,-0.70
2023-02-13T23:53:41.907Z,-0.70
2023-02-13T23:56:09.122Z,-0.70
2023-02-13T23:58:36.465Z,-0.70
